sensor_id;sensor_type;location;lat;lon;timestamp;P1;durP1;ratioP1;P2;durP2;ratioP2
1446;SDS011;717;51.522;7.266;2023-08-24T00:01:49;5.18;;;3.88;;
1446;SDS011;717;51.522;7.266;2023-08-24T00:04:22;5.03;;;4.03;;
1446;SDS011;717;51.522;7.266;2023-08-24T00:06:52;6.00;;;4.03;;
1446;SDS011;717;51.522;7.266;2023-08-24T00:09:22;4.25;;;3.67;;
1446;SDS011;717;51.522;7.266;2023-08-24T00:11:52;4.60;;;3.50;;
1446;SDS011;717;51.522;7.266;2023-08-24T00:14:22;4.20;;;3.80;;
1446;SDS011;717;51.522;7.266;2023-08-24T00:16:52;5.60;;;3.80;;
1446;SDS011;717;51.522;7.266;2023-08-24T00:19:25;5.60;;;4.13;;
1446;SDS011;717;51.522;7.266;2023-08-24T00:21:55;6.20;;;4.10;;
1446;SDS011;717;51.522;7.266;2023-08-24T00:24:25;4.95;;;3.88;;
1446;SDS011;717;51.522;7.266;2023-08-24T00:26:56;5.53;;;4.18;;
1446;SDS011;717;51.522;7.266;2023-08-24T00:29:26;5.10;;;3.75;;
1446;SDS011;717;51.522;7.266;2023-08-24T00:31:56;4.82;;;4.22;;
1446;SDS011;717;51.522;7.266;2023-08-24T00:34:29;5.78;;;4.03;;
1446;SDS011;717;51.522;7.266;2023-08-24T00:36:59;4.60;;;4.10;;
1446;SDS011;717;51.522;7.266;2023-08-24T00:39:29;4.97;;;4.20;;
1446;SDS011;717;51.522;7.266;2023-08-24T00:41:59;5.68;;;4.50;;
1446;SDS011;717;51.522;7.266;2023-08-24T00:44:30;6.22;;;5.07;;
1446;SDS011;717;51.522;7.266;2023-08-24T00:47:00;6.28;;;5.00;;
1446;SDS011;717;51.522;7.266;2023-08-24T00:49:33;7.40;;;5.18;;
1446;SDS011;717;51.522;7.266;2023-08-24T00:52:03;5.75;;;5.25;;
1446;SDS011;717;51.522;7.266;2023-08-24T00:54:34;6.00;;;5.60;;
1446;SDS011;717;51.522;7.266;2023-08-24T00:57:06;8.02;;;5.53;;
1446;SDS011;717;51.522;7.266;2023-08-24T00:59:36;6.47;;;5.40;;
1446;SDS011;717;51.522;7.266;2023-08-24T01:02:07;7.00;;;6.00;;
1446;SDS011;717;51.522;7.266;2023-08-24T01:04:40;6.90;;;6.10;;
1446;SDS011;717;51.522;7.266;2023-08-24T01:07:11;6.47;;;5.57;;
1446;SDS011;717;51.522;7.266;2023-08-24T01:09:44;5.85;;;5.35;;
1446;SDS011;717;51.522;7.266;2023-08-24T01:12:16;7.47;;;5.63;;
1446;SDS011;717;51.522;7.266;2023-08-24T01:14:57;6.80;;;4.72;;
1446;SDS011;717;51.522;7.266;2023-08-24T01:17:33;6.40;;;5.20;;
1446;SDS011;717;51.522;7.266;2023-08-24T01:20:08;5.50;;;5.00;;
1446;SDS011;717;51.522;7.266;2023-08-24T01:22:41;8.10;;;5.10;;
1446;SDS011;717;51.522;7.266;2023-08-24T01:25:20;5.60;;;5.07;;
1446;SDS011;717;51.522;7.266;2023-08-24T01:28:02;6.28;;;5.50;;
1446;SDS011;717;51.522;7.266;2023-08-24T01:30:34;6.05;;;5.30;;
1446;SDS011;717;51.522;7.266;2023-08-24T01:33:04;5.82;;;5.28;;
1446;SDS011;717;51.522;7.266;2023-08-24T01:35:38;7.90;;;5.50;;
1446;SDS011;717;51.522;7.266;2023-08-24T01:38:09;6.75;;;5.35;;
1446;SDS011;717;51.522;7.266;2023-08-24T01:40:44;6.30;;;5.70;;
1446;SDS011;717;51.522;7.266;2023-08-24T01:43:28;6.47;;;5.95;;
1446;SDS011;717;51.522;7.266;2023-08-24T01:46:06;7.00;;;6.30;;
1446;SDS011;717;51.522;7.266;2023-08-24T01:48:37;8.10;;;6.13;;
1446;SDS011;717;51.522;7.266;2023-08-24T01:51:07;7.20;;;6.50;;
1446;SDS011;717;51.522;7.266;2023-08-24T01:53:39;6.65;;;5.82;;
1446;SDS011;717;51.522;7.266;2023-08-24T01:56:11;7.45;;;6.65;;
1446;SDS011;717;51.522;7.266;2023-08-24T01:58:44;7.35;;;6.65;;
1446;SDS011;717;51.522;7.266;2023-08-24T02:01:15;7.65;;;6.95;;
1446;SDS011;717;51.522;7.266;2023-08-24T02:03:45;6.75;;;6.15;;
1446;SDS011;717;51.522;7.266;2023-08-24T02:06:15;7.03;;;6.32;;
1446;SDS011;717;51.522;7.266;2023-08-24T02:08:47;6.93;;;6.25;;
1446;SDS011;717;51.522;7.266;2023-08-24T02:11:17;6.82;;;6.15;;
1446;SDS011;717;51.522;7.266;2023-08-24T02:13:50;6.35;;;5.82;;
1446;SDS011;717;51.522;7.266;2023-08-24T02:16:20;6.60;;;6.00;;
1446;SDS011;717;51.522;7.266;2023-08-24T02:18:50;9.13;;;6.20;;
1446;SDS011;717;51.522;7.266;2023-08-24T02:21:20;7.88;;;6.38;;
1446;SDS011;717;51.522;7.266;2023-08-24T02:23:50;8.07;;;6.03;;
1446;SDS011;717;51.522;7.266;2023-08-24T02:26:20;8.32;;;6.13;;
1446;SDS011;717;51.522;7.266;2023-08-24T02:28:53;6.88;;;6.22;;
1446;SDS011;717;51.522;7.266;2023-08-24T02:31:23;7.22;;;6.20;;
1446;SDS011;717;51.522;7.266;2023-08-24T02:33:54;6.65;;;6.05;;
1446;SDS011;717;51.522;7.266;2023-08-24T02:36:24;7.20;;;6.50;;
1446;SDS011;717;51.522;7.266;2023-08-24T02:38:55;7.00;;;6.35;;
1446;SDS011;717;51.522;7.266;2023-08-24T02:41:25;7.63;;;6.93;;
1446;SDS011;717;51.522;7.266;2023-08-24T02:43:59;7.05;;;6.45;;
1446;SDS011;717;51.522;7.266;2023-08-24T02:46:29;13.88;;;6.68;;
1446;SDS011;717;51.522;7.266;2023-08-24T02:49:00;7.07;;;6.25;;
1446;SDS011;717;51.522;7.266;2023-08-24T02:51:30;6.53;;;5.70;;
1446;SDS011;717;51.522;7.266;2023-08-24T02:54:00;8.23;;;6.50;;
1446;SDS011;717;51.522;7.266;2023-08-24T02:56:30;5.97;;;5.43;;
1446;SDS011;717;51.522;7.266;2023-08-24T02:59:03;6.65;;;5.85;;
1446;SDS011;717;51.522;7.266;2023-08-24T03:01:33;7.70;;;5.97;;
1446;SDS011;717;51.522;7.266;2023-08-24T03:04:05;6.80;;;5.82;;
1446;SDS011;717;51.522;7.266;2023-08-24T03:06:35;6.55;;;5.93;;
1446;SDS011;717;51.522;7.266;2023-08-24T03:09:05;6.47;;;5.78;;
1446;SDS011;717;51.522;7.266;2023-08-24T03:11:35;6.68;;;5.93;;
1446;SDS011;717;51.522;7.266;2023-08-24T03:14:08;7.13;;;5.60;;
1446;SDS011;717;51.522;7.266;2023-08-24T03:16:38;6.20;;;5.55;;
1446;SDS011;717;51.522;7.266;2023-08-24T03:19:09;6.85;;;5.32;;
1446;SDS011;717;51.522;7.266;2023-08-24T03:21:41;5.68;;;5.18;;
1446;SDS011;717;51.522;7.266;2023-08-24T03:24:11;5.88;;;5.28;;
1446;SDS011;717;51.522;7.266;2023-08-24T03:26:41;5.50;;;4.80;;
1446;SDS011;717;51.522;7.266;2023-08-24T03:29:14;6.07;;;5.47;;
1446;SDS011;717;51.522;7.266;2023-08-24T03:31:44;6.85;;;5.50;;
1446;SDS011;717;51.522;7.266;2023-08-24T03:34:14;7.43;;;4.93;;
1446;SDS011;717;51.522;7.266;2023-08-24T03:36:45;6.57;;;5.53;;
1446;SDS011;717;51.522;7.266;2023-08-24T03:39:15;6.95;;;5.30;;
1446;SDS011;717;51.522;7.266;2023-08-24T03:41:45;6.35;;;5.40;;
1446;SDS011;717;51.522;7.266;2023-08-24T03:44:18;7.07;;;6.00;;
1446;SDS011;717;51.522;7.266;2023-08-24T03:46:48;5.90;;;5.32;;
1446;SDS011;717;51.522;7.266;2023-08-24T03:49:18;8.05;;;5.60;;
1446;SDS011;717;51.522;7.266;2023-08-24T03:51:48;6.90;;;5.35;;
1446;SDS011;717;51.522;7.266;2023-08-24T03:54:18;7.45;;;5.88;;
1446;SDS011;717;51.522;7.266;2023-08-24T03:56:50;7.60;;;6.05;;
1446;SDS011;717;51.522;7.266;2023-08-24T03:59:23;7.20;;;6.47;;
1446;SDS011;717;51.522;7.266;2023-08-24T04:01:53;9.52;;;6.28;;
1446;SDS011;717;51.522;7.266;2023-08-24T04:04:26;7.93;;;5.97;;
1446;SDS011;717;51.522;7.266;2023-08-24T04:06:56;9.38;;;6.20;;
1446;SDS011;717;51.522;7.266;2023-08-24T04:09:27;9.05;;;6.18;;
1446;SDS011;717;51.522;7.266;2023-08-24T04:11:58;8.15;;;6.00;;
1446;SDS011;717;51.522;7.266;2023-08-24T04:14:30;8.60;;;5.72;;
1446;SDS011;717;51.522;7.266;2023-08-24T04:17:01;9.25;;;5.90;;
1446;SDS011;717;51.522;7.266;2023-08-24T04:19:32;8.75;;;6.22;;
1446;SDS011;717;51.522;7.266;2023-08-24T04:22:02;9.57;;;6.20;;
1446;SDS011;717;51.522;7.266;2023-08-24T04:24:32;7.05;;;6.18;;
1446;SDS011;717;51.522;7.266;2023-08-24T04:27:03;9.65;;;6.22;;
1446;SDS011;717;51.522;7.266;2023-08-24T04:29:35;6.75;;;5.78;;
1446;SDS011;717;51.522;7.266;2023-08-24T04:32:05;7.28;;;5.85;;
1446;SDS011;717;51.522;7.266;2023-08-24T04:34:35;9.00;;;6.50;;
1446;SDS011;717;51.522;7.266;2023-08-24T04:37:06;7.10;;;5.70;;
1446;SDS011;717;51.522;7.266;2023-08-24T04:39:36;6.45;;;5.60;;
1446;SDS011;717;51.522;7.266;2023-08-24T04:42:06;9.98;;;6.00;;
1446;SDS011;717;51.522;7.266;2023-08-24T04:44:39;9.40;;;5.82;;
1446;SDS011;717;51.522;7.266;2023-08-24T04:47:09;7.38;;;6.32;;
1446;SDS011;717;51.522;7.266;2023-08-24T04:49:39;6.90;;;6.05;;
1446;SDS011;717;51.522;7.266;2023-08-24T04:52:09;9.48;;;5.40;;
1446;SDS011;717;51.522;7.266;2023-08-24T04:54:40;7.18;;;5.00;;
1446;SDS011;717;51.522;7.266;2023-08-24T04:57:11;7.60;;;5.45;;
1446;SDS011;717;51.522;7.266;2023-08-24T04:59:43;7.68;;;5.43;;
1446;SDS011;717;51.522;7.266;2023-08-24T05:02:13;8.60;;;5.72;;
1446;SDS011;717;51.522;7.266;2023-08-24T05:04:43;7.95;;;6.43;;
1446;SDS011;717;51.522;7.266;2023-08-24T05:07:15;8.25;;;6.20;;
1446;SDS011;717;51.522;7.266;2023-08-24T05:09:45;9.15;;;6.15;;
1446;SDS011;717;51.522;7.266;2023-08-24T05:12:15;8.45;;;6.30;;
1446;SDS011;717;51.522;7.266;2023-08-24T05:14:48;8.48;;;6.20;;
1446;SDS011;717;51.522;7.266;2023-08-24T05:17:18;6.80;;;5.53;;
1446;SDS011;717;51.522;7.266;2023-08-24T05:19:51;5.95;;;4.75;;
1446;SDS011;717;51.522;7.266;2023-08-24T05:22:22;7.20;;;4.80;;
1446;SDS011;717;51.522;7.266;2023-08-24T05:24:53;6.53;;;4.78;;
1446;SDS011;717;51.522;7.266;2023-08-24T05:27:23;7.00;;;4.90;;
1446;SDS011;717;51.522;7.266;2023-08-24T05:29:56;6.25;;;4.40;;
1446;SDS011;717;51.522;7.266;2023-08-24T05:32:26;4.65;;;4.25;;
1446;SDS011;717;51.522;7.266;2023-08-24T05:34:56;6.90;;;4.65;;
1446;SDS011;717;51.522;7.266;2023-08-24T05:37:26;6.45;;;5.45;;
1446;SDS011;717;51.522;7.266;2023-08-24T05:39:56;5.68;;;4.97;;
1446;SDS011;717;51.522;7.266;2023-08-24T05:42:30;6.70;;;5.50;;
1446;SDS011;717;51.522;7.266;2023-08-24T05:45:03;8.38;;;5.65;;
1446;SDS011;717;51.522;7.266;2023-08-24T05:47:34;5.90;;;4.97;;
1446;SDS011;717;51.522;7.266;2023-08-24T05:50:04;5.50;;;4.68;;
1446;SDS011;717;51.522;7.266;2023-08-24T05:52:38;5.00;;;4.50;;
1446;SDS011;717;51.522;7.266;2023-08-24T05:55:08;5.80;;;5.20;;
1446;SDS011;717;51.522;7.266;2023-08-24T05:57:38;5.45;;;4.95;;
1446;SDS011;717;51.522;7.266;2023-08-24T06:00:11;5.63;;;4.70;;
1446;SDS011;717;51.522;7.266;2023-08-24T06:02:42;7.13;;;5.13;;
1446;SDS011;717;51.522;7.266;2023-08-24T06:05:13;6.65;;;5.10;;
1446;SDS011;717;51.522;7.266;2023-08-24T06:07:44;5.75;;;5.18;;
1446;SDS011;717;51.522;7.266;2023-08-24T06:10:15;6.85;;;4.38;;
1446;SDS011;717;51.522;7.266;2023-08-24T06:12:46;7.60;;;5.00;;
1446;SDS011;717;51.522;7.266;2023-08-24T06:15:18;5.75;;;5.15;;
1446;SDS011;717;51.522;7.266;2023-08-24T06:17:51;5.50;;;4.88;;
1446;SDS011;717;51.522;7.266;2023-08-24T06:20:21;5.60;;;4.50;;
1446;SDS011;717;51.522;7.266;2023-08-24T06:22:51;8.15;;;5.03;;
1446;SDS011;717;51.522;7.266;2023-08-24T06:25:22;5.63;;;4.15;;
1446;SDS011;717;51.522;7.266;2023-08-24T06:27:52;4.60;;;4.20;;
1446;SDS011;717;51.522;7.266;2023-08-24T06:30:25;5.93;;;4.85;;
1446;SDS011;717;51.522;7.266;2023-08-24T06:32:59;4.75;;;4.28;;
1446;SDS011;717;51.522;7.266;2023-08-24T06:35:29;4.63;;;4.00;;
1446;SDS011;717;51.522;7.266;2023-08-24T06:37:59;7.50;;;4.03;;
1446;SDS011;717;51.522;7.266;2023-08-24T06:40:30;6.10;;;4.38;;
1446;SDS011;717;51.522;7.266;2023-08-24T06:43:00;5.78;;;4.20;;
1446;SDS011;717;51.522;7.266;2023-08-24T06:45:33;5.05;;;4.22;;
1446;SDS011;717;51.522;7.266;2023-08-24T06:48:03;5.80;;;4.90;;
1446;SDS011;717;51.522;7.266;2023-08-24T06:50:34;4.93;;;4.43;;
1446;SDS011;717;51.522;7.266;2023-08-24T06:53:05;6.15;;;4.40;;
1446;SDS011;717;51.522;7.266;2023-08-24T06:55:35;7.20;;;4.80;;
1446;SDS011;717;51.522;7.266;2023-08-24T06:58:05;7.30;;;5.22;;
1446;SDS011;717;51.522;7.266;2023-08-24T07:00:38;5.50;;;4.30;;
1446;SDS011;717;51.522;7.266;2023-08-24T07:03:08;6.53;;;4.88;;
1446;SDS011;717;51.522;7.266;2023-08-24T07:05:39;5.82;;;5.00;;
1446;SDS011;717;51.522;7.266;2023-08-24T07:08:09;7.45;;;5.43;;
1446;SDS011;717;51.522;7.266;2023-08-24T07:10:40;7.50;;;5.82;;
1446;SDS011;717;51.522;7.266;2023-08-24T07:13:11;5.63;;;5.13;;
1446;SDS011;717;51.522;7.266;2023-08-24T07:15:44;6.28;;;5.47;;
1446;SDS011;717;51.522;7.266;2023-08-24T07:18:14;6.40;;;5.05;;
1446;SDS011;717;51.522;7.266;2023-08-24T07:20:45;5.88;;;5.25;;
1446;SDS011;717;51.522;7.266;2023-08-24T07:23:15;6.15;;;4.97;;
1446;SDS011;717;51.522;7.266;2023-08-24T07:25:45;6.07;;;4.25;;
1446;SDS011;717;51.522;7.266;2023-08-24T07:28:15;7.18;;;3.75;;
1446;SDS011;717;51.522;7.266;2023-08-24T07:30:48;5.80;;;4.03;;
1446;SDS011;717;51.522;7.266;2023-08-24T07:33:23;4.78;;;3.90;;
1446;SDS011;717;51.522;7.266;2023-08-24T07:35:55;6.90;;;3.90;;
1446;SDS011;717;51.522;7.266;2023-08-24T07:38:30;5.68;;;3.42;;
1446;SDS011;717;51.522;7.266;2023-08-24T07:41:01;4.53;;;3.80;;
1446;SDS011;717;51.522;7.266;2023-08-24T07:43:32;6.00;;;4.15;;
1446;SDS011;717;51.522;7.266;2023-08-24T07:46:06;4.20;;;3.80;;
1446;SDS011;717;51.522;7.266;2023-08-24T07:48:36;4.60;;;3.53;;
1446;SDS011;717;51.522;7.266;2023-08-24T07:51:06;6.43;;;3.67;;
1446;SDS011;717;51.522;7.266;2023-08-24T07:53:37;5.47;;;3.75;;
1446;SDS011;717;51.522;7.266;2023-08-24T07:56:07;6.55;;;3.70;;
1446;SDS011;717;51.522;7.266;2023-08-24T07:58:37;4.90;;;3.40;;
1446;SDS011;717;51.522;7.266;2023-08-24T08:01:11;4.57;;;3.20;;
1446;SDS011;717;51.522;7.266;2023-08-24T08:03:41;4.47;;;3.20;;
1446;SDS011;717;51.522;7.266;2023-08-24T08:06:11;5.07;;;3.08;;
1446;SDS011;717;51.522;7.266;2023-08-24T08:08:42;4.25;;;2.95;;
1446;SDS011;717;51.522;7.266;2023-08-24T08:11:13;3.63;;;3.15;;
1446;SDS011;717;51.522;7.266;2023-08-24T08:13:44;6.00;;;3.60;;
1446;SDS011;717;51.522;7.266;2023-08-24T08:16:17;4.68;;;3.30;;
1446;SDS011;717;51.522;7.266;2023-08-24T08:18:47;6.45;;;3.60;;
1446;SDS011;717;51.522;7.266;2023-08-24T08:21:17;6.10;;;2.72;;
1446;SDS011;717;51.522;7.266;2023-08-24T08:23:49;5.35;;;3.10;;
1446;SDS011;717;51.522;7.266;2023-08-24T08:26:19;6.60;;;3.25;;
1446;SDS011;717;51.522;7.266;2023-08-24T08:28:50;3.80;;;2.30;;
1446;SDS011;717;51.522;7.266;2023-08-24T08:31:22;3.38;;;2.80;;
1446;SDS011;717;51.522;7.266;2023-08-24T08:33:53;3.88;;;3.05;;
1446;SDS011;717;51.522;7.266;2023-08-24T08:36:23;4.40;;;2.70;;
1446;SDS011;717;51.522;7.266;2023-08-24T08:38:53;3.75;;;2.42;;
1446;SDS011;717;51.522;7.266;2023-08-24T08:41:23;4.00;;;2.80;;
1446;SDS011;717;51.522;7.266;2023-08-24T08:43:56;3.00;;;2.17;;
1446;SDS011;717;51.522;7.266;2023-08-24T08:46:29;3.25;;;2.55;;
1446;SDS011;717;51.522;7.266;2023-08-24T08:49:00;4.80;;;2.25;;
1446;SDS011;717;51.522;7.266;2023-08-24T08:51:31;6.55;;;2.50;;
1446;SDS011;717;51.522;7.266;2023-08-24T08:54:02;3.20;;;2.30;;
1446;SDS011;717;51.522;7.266;2023-08-24T08:56:33;3.75;;;2.50;;
1446;SDS011;717;51.522;7.266;2023-08-24T08:59:03;5.85;;;3.13;;
1446;SDS011;717;51.522;7.266;2023-08-24T09:01:40;4.13;;;2.92;;
1446;SDS011;717;51.522;7.266;2023-08-24T09:04:14;3.53;;;2.60;;
1446;SDS011;717;51.522;7.266;2023-08-24T09:06:45;3.53;;;2.30;;
1446;SDS011;717;51.522;7.266;2023-08-24T09:09:15;4.03;;;2.15;;
1446;SDS011;717;51.522;7.266;2023-08-24T09:11:46;2.65;;;2.45;;
1446;SDS011;717;51.522;7.266;2023-08-24T09:14:16;3.95;;;2.25;;
1446;SDS011;717;51.522;7.266;2023-08-24T09:16:49;3.78;;;2.67;;
1446;SDS011;717;51.522;7.266;2023-08-24T09:19:20;5.65;;;3.03;;
1446;SDS011;717;51.522;7.266;2023-08-24T09:21:58;4.70;;;2.60;;
1446;SDS011;717;51.522;7.266;2023-08-24T09:24:33;3.33;;;2.67;;
1446;SDS011;717;51.522;7.266;2023-08-24T09:27:13;2.95;;;2.65;;
1446;SDS011;717;51.522;7.266;2023-08-24T09:29:47;4.45;;;3.20;;
1446;SDS011;717;51.522;7.266;2023-08-24T09:32:27;3.20;;;2.85;;
1446;SDS011;717;51.522;7.266;2023-08-24T09:35:01;4.55;;;2.58;;
1446;SDS011;717;51.522;7.266;2023-08-24T09:37:32;5.03;;;2.70;;
1446;SDS011;717;51.522;7.266;2023-08-24T09:40:04;4.43;;;2.67;;
1446;SDS011;717;51.522;7.266;2023-08-24T09:42:38;3.95;;;2.50;;
1446;SDS011;717;51.522;7.266;2023-08-24T09:45:11;2.95;;;2.50;;
1446;SDS011;717;51.522;7.266;2023-08-24T09:47:48;5.22;;;3.10;;
1446;SDS011;717;51.522;7.266;2023-08-24T09:50:19;4.13;;;2.88;;
1446;SDS011;717;51.522;7.266;2023-08-24T09:52:49;3.53;;;2.90;;
1446;SDS011;717;51.522;7.266;2023-08-24T09:55:23;4.28;;;2.80;;
1446;SDS011;717;51.522;7.266;2023-08-24T09:57:57;4.28;;;2.80;;
1446;SDS011;717;51.522;7.266;2023-08-24T10:00:29;5.30;;;2.75;;
1446;SDS011;717;51.522;7.266;2023-08-24T10:03:03;3.75;;;2.83;;
1446;SDS011;717;51.522;7.266;2023-08-24T10:05:34;4.18;;;3.03;;
1446;SDS011;717;51.522;7.266;2023-08-24T10:08:20;3.60;;;2.63;;
1446;SDS011;717;51.522;7.266;2023-08-24T10:10:55;3.72;;;2.63;;
1446;SDS011;717;51.522;7.266;2023-08-24T10:13:31;4.63;;;3.00;;
1446;SDS011;717;51.522;7.266;2023-08-24T10:16:05;15.18;;;6.40;;
1446;SDS011;717;51.522;7.266;2023-08-24T10:18:42;6.53;;;3.10;;
1446;SDS011;717;51.522;7.266;2023-08-24T10:21:13;7.35;;;3.08;;
1446;SDS011;717;51.522;7.266;2023-08-24T10:23:44;15.02;;;6.72;;
1446;SDS011;717;51.522;7.266;2023-08-24T10:26:15;23.95;;;9.55;;
1446;SDS011;717;51.522;7.266;2023-08-24T10:28:48;18.83;;;7.55;;
1446;SDS011;717;51.522;7.266;2023-08-24T10:31:20;8.00;;;5.10;;
1446;SDS011;717;51.522;7.266;2023-08-24T10:33:53;9.77;;;4.45;;
1446;SDS011;717;51.522;7.266;2023-08-24T10:36:24;5.50;;;3.55;;
1446;SDS011;717;51.522;7.266;2023-08-24T10:38:56;6.60;;;4.07;;
1446;SDS011;717;51.522;7.266;2023-08-24T10:41:45;7.72;;;3.90;;
1446;SDS011;717;51.522;7.266;2023-08-24T10:44:20;6.90;;;3.90;;
1446;SDS011;717;51.522;7.266;2023-08-24T10:49:57;5.20;;;3.17;;
1446;SDS011;717;51.522;7.266;2023-08-24T10:52:31;4.10;;;2.78;;
1446;SDS011;717;51.522;7.266;2023-08-24T10:55:03;3.55;;;2.72;;
1446;SDS011;717;51.522;7.266;2023-08-24T10:57:57;5.18;;;2.88;;
1446;SDS011;717;51.522;7.266;2023-08-24T11:00:28;3.40;;;2.72;;
1446;SDS011;717;51.522;7.266;2023-08-24T11:02:59;6.05;;;2.40;;
1446;SDS011;717;51.522;7.266;2023-08-24T11:05:32;4.90;;;2.83;;
1446;SDS011;717;51.522;7.266;2023-08-24T11:08:03;4.85;;;2.35;;
1446;SDS011;717;51.522;7.266;2023-08-24T11:10:35;3.55;;;2.53;;
1446;SDS011;717;51.522;7.266;2023-08-24T11:13:17;3.72;;;2.15;;
1446;SDS011;717;51.522;7.266;2023-08-24T11:15:50;4.13;;;2.63;;
1446;SDS011;717;51.522;7.266;2023-08-24T11:18:26;3.65;;;2.40;;
1446;SDS011;717;51.522;7.266;2023-08-24T11:21:02;4.35;;;2.95;;
1446;SDS011;717;51.522;7.266;2023-08-24T11:23:34;4.22;;;2.50;;
1446;SDS011;717;51.522;7.266;2023-08-24T11:26:05;4.07;;;2.45;;
1446;SDS011;717;51.522;7.266;2023-08-24T11:28:35;3.65;;;2.42;;
1446;SDS011;717;51.522;7.266;2023-08-24T11:31:08;2.55;;;2.20;;
1446;SDS011;717;51.522;7.266;2023-08-24T11:33:39;2.50;;;2.17;;
1446;SDS011;717;51.522;7.266;2023-08-24T11:36:11;3.58;;;2.50;;
1446;SDS011;717;51.522;7.266;2023-08-24T11:38:42;2.72;;;2.33;;
1446;SDS011;717;51.522;7.266;2023-08-24T11:41:14;3.13;;;2.10;;
1446;SDS011;717;51.522;7.266;2023-08-24T11:43:45;3.97;;;1.95;;
1446;SDS011;717;51.522;7.266;2023-08-24T11:46:17;3.30;;;2.10;;
1446;SDS011;717;51.522;7.266;2023-08-24T11:48:48;3.53;;;2.28;;
1446;SDS011;717;51.522;7.266;2023-08-24T11:51:21;2.90;;;2.10;;
1446;SDS011;717;51.522;7.266;2023-08-24T11:54:08;2.83;;;1.92;;
1446;SDS011;717;51.522;7.266;2023-08-24T11:56:41;4.35;;;2.33;;
1446;SDS011;717;51.522;7.266;2023-08-24T11:59:13;2.10;;;1.88;;
1446;SDS011;717;51.522;7.266;2023-08-24T12:01:43;3.53;;;1.95;;
1446;SDS011;717;51.522;7.266;2023-08-24T12:04:16;3.75;;;1.90;;
1446;SDS011;717;51.522;7.266;2023-08-24T12:06:49;2.90;;;2.00;;
1446;SDS011;717;51.522;7.266;2023-08-24T12:09:19;2.55;;;1.95;;
1446;SDS011;717;51.522;7.266;2023-08-24T12:11:54;5.28;;;2.08;;
1446;SDS011;717;51.522;7.266;2023-08-24T12:14:25;2.67;;;1.63;;
1446;SDS011;717;51.522;7.266;2023-08-24T12:16:56;4.18;;;2.05;;
1446;SDS011;717;51.522;7.266;2023-08-24T12:19:26;4.05;;;2.20;;
1446;SDS011;717;51.522;7.266;2023-08-24T12:21:59;3.92;;;1.90;;
1446;SDS011;717;51.522;7.266;2023-08-24T12:24:29;2.67;;;1.77;;
1446;SDS011;717;51.522;7.266;2023-08-24T12:26:59;3.90;;;1.98;;
1446;SDS011;717;51.522;7.266;2023-08-24T12:29:30;3.42;;;2.20;;
1446;SDS011;717;51.522;7.266;2023-08-24T12:32:00;2.70;;;1.83;;
1446;SDS011;717;51.522;7.266;2023-08-24T12:34:30;3.25;;;1.88;;
1446;SDS011;717;51.522;7.266;2023-08-24T12:37:03;2.80;;;2.03;;
1446;SDS011;717;51.522;7.266;2023-08-24T12:39:34;3.03;;;1.83;;
1446;SDS011;717;51.522;7.266;2023-08-24T12:42:06;5.22;;;2.30;;
1446;SDS011;717;51.522;7.266;2023-08-24T12:44:36;3.72;;;1.95;;
1446;SDS011;717;51.522;7.266;2023-08-24T12:47:06;4.70;;;2.30;;
1446;SDS011;717;51.522;7.266;2023-08-24T12:49:36;3.42;;;2.13;;
1446;SDS011;717;51.522;7.266;2023-08-24T12:52:09;3.78;;;2.15;;
1446;SDS011;717;51.522;7.266;2023-08-24T12:54:41;2.92;;;1.98;;
1446;SDS011;717;51.522;7.266;2023-08-24T12:57:12;3.75;;;2.00;;
1446;SDS011;717;51.522;7.266;2023-08-24T12:59:41;2.97;;;2.00;;
1446;SDS011;717;51.522;7.266;2023-08-24T13:02:12;3.83;;;2.22;;
1446;SDS011;717;51.522;7.266;2023-08-24T13:05:03;2.83;;;2.00;;
1446;SDS011;717;51.522;7.266;2023-08-24T13:07:36;6.75;;;2.20;;
1446;SDS011;717;51.522;7.266;2023-08-24T13:10:07;2.63;;;2.00;;
1446;SDS011;717;51.522;7.266;2023-08-24T13:12:38;6.07;;;2.42;;
1446;SDS011;717;51.522;7.266;2023-08-24T13:15:09;4.00;;;2.33;;
1446;SDS011;717;51.522;7.266;2023-08-24T13:17:41;2.67;;;1.85;;
1446;SDS011;717;51.522;7.266;2023-08-24T13:20:12;3.70;;;2.13;;
1446;SDS011;717;51.522;7.266;2023-08-24T13:22:45;5.20;;;2.30;;
1446;SDS011;717;51.522;7.266;2023-08-24T13:25:15;3.42;;;2.00;;
1446;SDS011;717;51.522;7.266;2023-08-24T13:27:42;5.57;;;2.55;;
1446;SDS011;717;51.522;7.266;2023-08-24T13:30:13;3.45;;;2.20;;
1446;SDS011;717;51.522;7.266;2023-08-24T13:32:43;4.20;;;1.85;;
1446;SDS011;717;51.522;7.266;2023-08-24T13:35:13;4.20;;;2.22;;
1446;SDS011;717;51.522;7.266;2023-08-24T13:37:47;5.80;;;2.38;;
1446;SDS011;717;51.522;7.266;2023-08-24T13:40:17;3.28;;;2.15;;
1446;SDS011;717;51.522;7.266;2023-08-24T13:42:48;7.13;;;3.05;;
1446;SDS011;717;51.522;7.266;2023-08-24T13:45:18;4.30;;;1.98;;
1446;SDS011;717;51.522;7.266;2023-08-24T13:47:48;4.68;;;2.03;;
1446;SDS011;717;51.522;7.266;2023-08-24T13:50:19;3.17;;;2.03;;
1446;SDS011;717;51.522;7.266;2023-08-24T13:52:51;5.50;;;2.55;;
1446;SDS011;717;51.522;7.266;2023-08-24T13:55:22;3.08;;;1.98;;
1446;SDS011;717;51.522;7.266;2023-08-24T13:57:53;4.28;;;2.30;;
1446;SDS011;717;51.522;7.266;2023-08-24T14:00:23;3.67;;;1.95;;
1446;SDS011;717;51.522;7.266;2023-08-24T14:02:54;3.53;;;2.42;;
1446;SDS011;717;51.522;7.266;2023-08-24T14:05:24;6.07;;;2.15;;
1446;SDS011;717;51.522;7.266;2023-08-24T14:07:57;3.88;;;2.15;;
1446;SDS011;717;51.522;7.266;2023-08-24T14:10:27;2.85;;;1.98;;
1446;SDS011;717;51.522;7.266;2023-08-24T14:12:58;2.20;;;1.98;;
1446;SDS011;717;51.522;7.266;2023-08-24T14:15:28;3.83;;;2.50;;
1446;SDS011;717;51.522;7.266;2023-08-24T14:17:58;4.93;;;2.33;;
1446;SDS011;717;51.522;7.266;2023-08-24T14:20:28;4.07;;;2.50;;
1446;SDS011;717;51.522;7.266;2023-08-24T14:23:01;3.90;;;2.05;;
1446;SDS011;717;51.522;7.266;2023-08-24T14:25:32;3.65;;;2.00;;
1446;SDS011;717;51.522;7.266;2023-08-24T14:28:03;3.50;;;1.95;;
1446;SDS011;717;51.522;7.266;2023-08-24T14:30:36;5.88;;;2.10;;
1446;SDS011;717;51.522;7.266;2023-08-24T14:33:08;3.47;;;2.10;;
1446;SDS011;717;51.522;7.266;2023-08-24T14:35:38;3.78;;;2.25;;
1446;SDS011;717;51.522;7.266;2023-08-24T14:38:11;4.00;;;1.92;;
1446;SDS011;717;51.522;7.266;2023-08-24T14:40:41;3.58;;;2.28;;
1446;SDS011;717;51.522;7.266;2023-08-24T14:43:11;4.97;;;2.33;;
1446;SDS011;717;51.522;7.266;2023-08-24T14:45:41;5.03;;;2.42;;
1446;SDS011;717;51.522;7.266;2023-08-24T14:48:12;4.65;;;2.40;;
1446;SDS011;717;51.522;7.266;2023-08-24T14:50:43;3.20;;;2.17;;
1446;SDS011;717;51.522;7.266;2023-08-24T14:53:16;3.20;;;2.40;;
1446;SDS011;717;51.522;7.266;2023-08-24T14:55:47;4.65;;;2.35;;
1446;SDS011;717;51.522;7.266;2023-08-24T14:58:17;2.50;;;2.25;;
1446;SDS011;717;51.522;7.266;2023-08-24T15:00:47;4.05;;;2.30;;
1446;SDS011;717;51.522;7.266;2023-08-24T15:03:18;4.50;;;2.70;;
1446;SDS011;717;51.522;7.266;2023-08-24T15:05:55;4.93;;;2.65;;
1446;SDS011;717;51.522;7.266;2023-08-24T15:08:30;4.85;;;2.50;;
1446;SDS011;717;51.522;7.266;2023-08-24T15:11:01;4.75;;;2.03;;
1446;SDS011;717;51.522;7.266;2023-08-24T15:13:34;3.60;;;2.30;;
1446;SDS011;717;51.522;7.266;2023-08-24T15:16:04;4.85;;;3.15;;
1446;SDS011;717;51.522;7.266;2023-08-24T15:18:36;4.57;;;2.60;;
1446;SDS011;717;51.522;7.266;2023-08-24T15:21:06;3.92;;;2.83;;
1446;SDS011;717;51.522;7.266;2023-08-24T15:23:39;5.70;;;3.28;;
1446;SDS011;717;51.522;7.266;2023-08-24T15:26:09;5.50;;;2.75;;
1446;SDS011;717;51.522;7.266;2023-08-24T15:31:38;4.63;;;2.90;;
1446;SDS011;717;51.522;7.266;2023-08-24T15:34:09;6.65;;;3.13;;
1446;SDS011;717;51.522;7.266;2023-08-24T15:36:39;7.32;;;3.70;;
1446;SDS011;717;51.522;7.266;2023-08-24T15:39:13;4.28;;;3.15;;
1446;SDS011;717;51.522;7.266;2023-08-24T15:41:43;6.25;;;3.30;;
1446;SDS011;717;51.522;7.266;2023-08-24T15:44:14;6.28;;;3.35;;
1446;SDS011;717;51.522;7.266;2023-08-24T15:46:44;5.53;;;2.80;;
1446;SDS011;717;51.522;7.266;2023-08-24T15:49:14;5.65;;;2.90;;
1446;SDS011;717;51.522;7.266;2023-08-24T15:51:44;3.78;;;2.30;;
1446;SDS011;717;51.522;7.266;2023-08-24T15:54:17;5.25;;;2.60;;
1446;SDS011;717;51.522;7.266;2023-08-24T15:56:47;6.95;;;2.67;;
1446;SDS011;717;51.522;7.266;2023-08-24T15:59:21;5.40;;;2.63;;
1446;SDS011;717;51.522;7.266;2023-08-24T16:01:52;7.03;;;2.97;;
1446;SDS011;717;51.522;7.266;2023-08-24T16:04:22;4.70;;;2.53;;